SYD weather

Sydney Kingsford Smith International Airport
Sydney, New South Wales, Australia

Public forecast

Using degrees Celsius for public forecast. Weather courtesy of forecast.io.

METAR (pilot weather report)

Retrieved 2019/02/17 13:00 UTC (26 minutes ago):

YSSY 171300Z 02011KT CAVOK 24/19 Q1011 NOSIG

TAF (pilot weather forecast)

Retrieved 2019/02/17 12:36 UTC (50 minutes ago):

TAF YSSY 171107Z 1712/1818 01010KT CAVOK FM180100 06012KT CAVOK FM180400 04018KT CAVOK FM181200 02008KT CAVOK